createdAt,value
2019-03-27T00:00:37.321Z,3.60
2019-03-27T00:03:05.881Z,3.60
2019-03-27T00:05:34.343Z,3.60
2019-03-27T00:08:02.827Z,3.60
2019-03-27T00:10:31.362Z,3.50
2019-03-27T00:13:00.689Z,3.50
2019-03-27T00:15:29.139Z,3.50
2019-03-27T00:17:57.569Z,3.50
2019-03-27T00:20:26.023Z,3.50
2019-03-27T00:22:54.507Z,3.50
2019-03-27T00:25:23.134Z,3.50
2019-03-27T00:27:51.566Z,3.40
2019-03-27T00:30:20.021Z,3.40
2019-03-27T00:32:48.477Z,3.40
2019-03-27T00:35:16.957Z,3.40
2019-03-27T00:37:45.434Z,3.40
2019-03-27T00:40:14.104Z,3.30
2019-03-27T00:42:42.565Z,3.40
2019-03-27T00:45:25.494Z,3.30
2019-03-27T00:47:42.321Z,3.30
2019-03-27T00:50:11.129Z,3.30
2019-03-27T00:52:39.627Z,3.40
2019-03-27T00:55:09.613Z,3.30
2019-03-27T00:57:38.113Z,3.40
2019-03-27T01:00:24.515Z,3.40
2019-03-27T01:02:53.014Z,3.40
2019-03-27T01:05:21.773Z,3.40
2019-03-27T01:07:50.226Z,3.40
2019-03-27T01:10:18.703Z,3.40
2019-03-27T01:12:47.160Z,3.40
2019-03-27T01:15:15.770Z,3.40
2019-03-27T01:17:44.235Z,3.40
2019-03-27T01:20:12.847Z,3.30
2019-03-27T01:22:41.302Z,3.30
2019-03-27T01:25:11.367Z,3.30
2019-03-27T01:27:39.811Z,3.30
2019-03-27T01:30:08.628Z,3.20
2019-03-27T01:32:37.130Z,3.10
2019-03-27T01:35:06.021Z,3.10
2019-03-27T01:37:34.496Z,3.00
2019-03-27T01:40:02.929Z,3.00
2019-03-27T01:42:31.410Z,3.00
2019-03-27T01:44:59.870Z,3.00
2019-03-27T01:47:28.314Z,3.00
2019-03-27T01:49:56.793Z,3.00
2019-03-27T01:52:25.250Z,3.00
2019-03-27T01:55:13.047Z,3.00
2019-03-27T01:57:41.539Z,3.00
2019-03-27T02:00:10.527Z,2.90
2019-03-27T02:02:39.009Z,2.80
2019-03-27T02:05:07.597Z,2.80
2019-03-27T02:07:36.223Z,2.80
2019-03-27T02:10:07.319Z,2.70
2019-03-27T02:12:35.777Z,2.70
2019-03-27T02:15:08.714Z,2.70
2019-03-27T02:17:37.178Z,2.70
2019-03-27T02:20:08.050Z,2.60
2019-03-27T02:22:36.553Z,2.60
2019-03-27T02:25:06.930Z,2.60
2019-03-27T02:27:35.393Z,2.60
2019-03-27T02:30:05.339Z,2.60
2019-03-27T02:32:33.832Z,2.60
2019-03-27T02:35:02.813Z,2.50
2019-03-27T02:37:31.300Z,2.60
2019-03-27T02:39:59.836Z,2.50
2019-03-27T02:42:28.299Z,2.50
2019-03-27T02:44:56.750Z,2.50
2019-03-27T02:47:25.209Z,2.50
2019-03-27T02:49:53.672Z,2.50
2019-03-27T02:52:22.130Z,2.50
2019-03-27T02:54:50.585Z,2.60
2019-03-27T02:57:19.005Z,2.60
2019-03-27T02:59:47.461Z,2.60
2019-03-27T03:02:16.074Z,2.60
2019-03-27T03:04:44.649Z,2.70
2019-03-27T03:07:13.114Z,2.70
2019-03-27T03:09:41.614Z,2.80
2019-03-27T03:12:10.084Z,2.80
2019-03-27T03:14:38.502Z,2.80
2019-03-27T03:17:06.998Z,2.80
2019-03-27T03:19:35.536Z,2.90
2019-03-27T03:22:04.078Z,2.90
2019-03-27T03:24:32.594Z,2.90
2019-03-27T03:27:02.248Z,2.90
2019-03-27T03:29:30.669Z,2.80
2019-03-27T03:31:59.155Z,2.90
2019-03-27T03:34:27.761Z,2.90
2019-03-27T03:36:56.294Z,2.90
2019-03-27T03:39:24.732Z,2.90
2019-03-27T03:41:53.199Z,2.90
2019-03-27T03:44:21.643Z,2.90
2019-03-27T03:46:59.661Z,3.00
2019-03-27T03:49:20.390Z,2.90
2019-03-27T03:51:48.878Z,3.00
2019-03-27T03:54:18.630Z,3.00
2019-03-27T03:56:48.253Z,3.00
2019-03-27T03:59:18.323Z,3.00
2019-03-27T04:01:49.863Z,3.00
2019-03-27T04:04:22.070Z,3.00
2019-03-27T04:06:51.558Z,3.10
2019-03-27T04:09:19.992Z,3.10
2019-03-27T04:11:48.481Z,3.10
2019-03-27T04:14:16.931Z,3.10
2019-03-27T04:16:45.401Z,3.10
2019-03-27T04:19:13.861Z,3.10
2019-03-27T04:21:42.326Z,3.10
2019-03-27T04:24:10.777Z,3.10
2019-03-27T04:26:39.254Z,3.10
2019-03-27T04:29:07.712Z,3.10
2019-03-27T04:31:36.240Z,3.10
2019-03-27T04:34:04.706Z,3.10
2019-03-27T04:36:33.156Z,3.10
2019-03-27T04:39:01.650Z,3.20
2019-03-27T04:41:30.177Z,3.10
2019-03-27T04:43:58.722Z,3.10
2019-03-27T04:46:27.150Z,3.10
2019-03-27T04:48:55.608Z,3.10
2019-03-27T04:51:24.063Z,3.10
2019-03-27T04:53:52.517Z,3.10
2019-03-27T04:56:20.974Z,3.10
2019-03-27T04:58:49.459Z,3.10
2019-03-27T05:01:17.945Z,3.10
2019-03-27T05:03:46.486Z,3.10
2019-03-27T05:06:14.927Z,3.10
2019-03-27T05:08:43.409Z,3.10
2019-03-27T05:11:11.859Z,3.10
2019-03-27T05:13:40.346Z,3.10
2019-03-27T05:16:08.894Z,3.00
2019-03-27T05:18:37.346Z,3.10
2019-03-27T05:21:05.826Z,3.10
2019-03-27T05:23:34.302Z,3.10
2019-03-27T05:26:02.725Z,3.00
2019-03-27T05:28:31.202Z,3.00
2019-03-27T05:30:59.626Z,3.10
2019-03-27T05:33:28.115Z,3.10
2019-03-27T05:35:56.570Z,3.10
2019-03-27T05:38:25.025Z,3.10
2019-03-27T05:40:53.478Z,3.10
2019-03-27T05:43:21.947Z,3.10
2019-03-27T05:45:50.412Z,3.10
2019-03-27T05:48:18.834Z,3.10
2019-03-27T05:50:47.354Z,3.20
2019-03-27T05:53:15.807Z,3.20
2019-03-27T05:55:44.327Z,3.20
2019-03-27T05:58:12.805Z,3.20
2019-03-27T06:00:41.377Z,3.30
2019-03-27T06:03:09.821Z,3.20
2019-03-27T06:05:38.251Z,3.30
2019-03-27T06:08:06.684Z,3.20
2019-03-27T06:10:35.339Z,3.30
2019-03-27T06:13:03.812Z,3.40
2019-03-27T06:15:32.293Z,3.60
2019-03-27T06:18:12.538Z,3.80
2019-03-27T06:20:32.624Z,3.80
2019-03-27T06:23:01.996Z,3.90
2019-03-27T06:25:30.429Z,4.00
2019-03-27T06:27:58.878Z,4.40
2019-03-27T06:30:27.354Z,4.70
2019-03-27T06:32:55.882Z,4.90
2019-03-27T06:35:24.397Z,5.00
2019-03-27T06:37:52.857Z,5.20
2019-03-27T06:40:21.336Z,5.40
2019-03-27T06:42:49.764Z,5.40
2019-03-27T06:45:18.247Z,5.20
2019-03-27T06:47:46.674Z,5.00
2019-03-27T06:50:15.297Z,5.60
2019-03-27T06:52:43.757Z,7.30
2019-03-27T06:55:12.351Z,8.50
2019-03-27T06:57:40.828Z,9.00
2019-03-27T07:00:10.089Z,9.30
2019-03-27T07:02:38.566Z,7.90
2019-03-27T07:05:07.261Z,6.80
2019-03-27T07:07:35.685Z,6.80
2019-03-27T07:10:06.407Z,6.40
2019-03-27T07:12:34.889Z,6.00
2019-03-27T07:15:04.917Z,5.90
2019-03-27T07:17:33.486Z,5.70
2019-03-27T07:20:01.940Z,5.80
2019-03-27T07:22:30.386Z,5.80
2019-03-27T07:24:58.853Z,6.00
2019-03-27T07:27:27.321Z,6.50
2019-03-27T07:29:55.853Z,6.90
2019-03-27T07:32:24.301Z,7.90
2019-03-27T07:34:52.783Z,8.80
2019-03-27T07:37:21.231Z,9.00
2019-03-27T07:39:49.657Z,8.20
2019-03-27T07:42:18.106Z,8.70
2019-03-27T07:44:46.599Z,9.00
2019-03-27T07:47:15.074Z,9.10
2019-03-27T07:49:43.534Z,8.60
2019-03-27T07:52:12.058Z,8.70
2019-03-27T07:54:40.582Z,8.20
2019-03-27T07:57:09.060Z,8.20
2019-03-27T07:59:37.494Z,7.90
2019-03-27T08:02:05.966Z,7.70
2019-03-27T08:04:34.431Z,7.40
2019-03-27T08:07:03.022Z,7.30
2019-03-27T08:09:31.502Z,7.20
2019-03-27T08:12:01.796Z,7.60
2019-03-27T08:14:30.321Z,7.70
2019-03-27T08:16:58.741Z,7.50
2019-03-27T08:19:27.277Z,7.30
2019-03-27T08:21:55.702Z,7.00
2019-03-27T08:24:24.201Z,6.90
2019-03-27T08:26:52.710Z,6.70
2019-03-27T08:29:21.162Z,6.70
2019-03-27T08:31:49.620Z,6.60
2019-03-27T08:34:18.078Z,6.30
2019-03-27T08:36:46.498Z,6.10
2019-03-27T08:39:15.001Z,6.00
2019-03-27T08:41:43.461Z,6.00
2019-03-27T08:44:11.943Z,6.10
2019-03-27T08:46:40.466Z,6.10
2019-03-27T08:49:21.258Z,6.20
2019-03-27T08:51:39.114Z,6.20
2019-03-27T08:54:07.566Z,6.10
2019-03-27T08:56:35.995Z,6.10
2019-03-27T08:59:04.509Z,6.30
2019-03-27T09:01:32.971Z,6.40
2019-03-27T09:04:02.179Z,6.40
2019-03-27T09:06:33.931Z,6.30
2019-03-27T09:09:01.735Z,6.20
2019-03-27T09:11:30.223Z,6.30
2019-03-27T09:13:58.783Z,6.40
2019-03-27T09:16:27.209Z,6.50
2019-03-27T09:18:55.664Z,6.70
2019-03-27T09:21:24.118Z,6.80
2019-03-27T09:23:52.605Z,6.80
2019-03-27T09:26:21.058Z,6.80
2019-03-27T09:28:49.486Z,6.90
2019-03-27T09:31:17.981Z,7.00
2019-03-27T09:33:46.406Z,6.90
2019-03-27T09:36:14.870Z,6.80
2019-03-27T09:38:43.302Z,7.10
2019-03-27T09:41:11.759Z,7.40
2019-03-27T09:43:40.213Z,7.30
2019-03-27T09:46:08.736Z,7.10
2019-03-27T09:48:37.165Z,6.70
2019-03-27T09:51:05.630Z,6.40
2019-03-27T09:53:34.066Z,6.30
2019-03-27T09:56:02.552Z,6.00
2019-03-27T09:58:31.029Z,5.90
2019-03-27T10:01:01.611Z,5.90
2019-03-27T10:03:30.129Z,6.10
2019-03-27T10:05:58.752Z,6.30
2019-03-27T10:08:27.206Z,6.60
2019-03-27T10:10:55.754Z,7.00
2019-03-27T10:13:24.213Z,7.00
2019-03-27T10:15:52.837Z,7.20
2019-03-27T10:18:21.356Z,7.20
2019-03-27T10:20:49.814Z,7.40
2019-03-27T10:23:18.245Z,7.70
2019-03-27T10:25:46.725Z,7.80
2019-03-27T10:28:15.177Z,7.70
2019-03-27T10:30:43.902Z,7.70
2019-03-27T10:33:15.143Z,7.90
2019-03-27T10:35:42.638Z,8.00
2019-03-27T10:38:11.066Z,8.20
2019-03-27T10:40:39.624Z,8.60
2019-03-27T10:43:08.086Z,8.80
2019-03-27T10:45:36.655Z,9.10
2019-03-27T10:48:05.175Z,9.30
2019-03-27T10:50:33.664Z,9.40
2019-03-27T10:53:02.094Z,9.20
2019-03-27T10:55:34.257Z,8.70
2019-03-27T10:58:00.764Z,8.50
2019-03-27T11:00:29.219Z,8.70
2019-03-27T11:02:57.685Z,8.90
2019-03-27T11:05:26.125Z,8.90
2019-03-27T11:07:54.577Z,8.80
2019-03-27T11:10:23.702Z,8.60
2019-03-27T11:12:52.227Z,8.30
2019-03-27T11:15:20.894Z,8.10
2019-03-27T11:17:49.356Z,8.00
2019-03-27T11:20:30.222Z,7.90
2019-03-27T11:22:48.099Z,7.70
2019-03-27T11:25:16.557Z,7.70
2019-03-27T11:27:45.039Z,7.70
2019-03-27T11:30:14.021Z,7.60
2019-03-27T11:32:42.504Z,7.70
2019-03-27T11:35:11.209Z,7.80
2019-03-27T11:37:39.771Z,8.00
2019-03-27T11:40:08.574Z,8.20
2019-03-27T11:42:37.022Z,8.20
2019-03-27T11:45:07.531Z,7.90
2019-03-27T11:47:36.083Z,7.80
2019-03-27T11:50:07.633Z,7.90
2019-03-27T11:52:36.096Z,7.90
2019-03-27T11:55:05.360Z,7.90
2019-03-27T11:57:33.777Z,8.00
2019-03-27T12:00:02.280Z,7.80
2019-03-27T12:02:30.820Z,7.70
2019-03-27T12:04:59.364Z,7.60
2019-03-27T12:07:27.896Z,7.50
2019-03-27T12:09:56.443Z,7.50
2019-03-27T12:12:24.914Z,7.60
2019-03-27T12:14:53.429Z,7.50
2019-03-27T12:17:21.994Z,7.40
2019-03-27T12:19:50.415Z,7.30
2019-03-27T12:22:18.849Z,7.20
2019-03-27T12:24:47.314Z,7.30
2019-03-27T12:27:15.769Z,7.40
2019-03-27T12:29:44.249Z,7.40
2019-03-27T12:32:12.723Z,7.40
2019-03-27T12:34:41.576Z,7.60
2019-03-27T12:37:09.998Z,7.70
2019-03-27T12:39:40.745Z,7.80
2019-03-27T12:42:08.633Z,8.10
2019-03-27T12:44:37.093Z,8.30
2019-03-27T12:47:05.573Z,8.50
2019-03-27T12:49:34.019Z,8.80
2019-03-27T12:52:05.386Z,8.80
2019-03-27T12:54:32.760Z,8.90
2019-03-27T12:57:01.181Z,9.00
2019-03-27T12:59:29.679Z,9.00
2019-03-27T13:01:58.118Z,9.00
2019-03-27T13:04:26.699Z,8.80
2019-03-27T13:06:55.155Z,8.50
2019-03-27T13:09:23.610Z,8.20
2019-03-27T13:11:52.115Z,7.90
2019-03-27T13:14:20.608Z,7.70
2019-03-27T13:16:52.138Z,7.80
2019-03-27T13:19:19.285Z,7.80
2019-03-27T13:21:47.747Z,7.70
2019-03-27T13:24:16.202Z,7.60
2019-03-27T13:26:44.663Z,7.50
2019-03-27T13:29:13.173Z,7.50
2019-03-27T13:31:41.700Z,7.60
2019-03-27T13:34:10.164Z,7.70
2019-03-27T13:36:40.227Z,7.80
2019-03-27T13:39:08.752Z,7.90
2019-03-27T13:41:37.238Z,8.00
2019-03-27T13:44:05.752Z,7.90
2019-03-27T13:46:34.198Z,7.90
2019-03-27T13:49:02.696Z,7.80
2019-03-27T13:51:40.501Z,7.90
2019-03-27T13:54:01.294Z,8.20
2019-03-27T13:56:29.753Z,8.40
2019-03-27T13:58:58.243Z,8.50
2019-03-27T14:01:26.677Z,8.50
2019-03-27T14:03:55.132Z,8.50
2019-03-27T14:06:23.599Z,8.30
2019-03-27T14:08:52.157Z,8.30
2019-03-27T14:11:20.634Z,8.40
2019-03-27T14:13:49.086Z,8.40
2019-03-27T14:16:17.993Z,8.40
2019-03-27T14:18:48.982Z,8.60
2019-03-27T14:21:16.638Z,8.60
2019-03-27T14:23:45.105Z,8.60
2019-03-27T14:26:13.539Z,8.60
2019-03-27T14:28:42.002Z,8.60
2019-03-27T14:31:10.549Z,8.80
2019-03-27T14:33:39.031Z,8.70
2019-03-27T14:36:07.515Z,8.60
2019-03-27T14:38:35.975Z,8.70
2019-03-27T14:41:04.675Z,8.70
2019-03-27T14:43:33.101Z,8.60
2019-03-27T14:46:01.559Z,8.40
2019-03-27T14:48:30.093Z,8.40
2019-03-27T14:50:58.549Z,8.50
2019-03-27T14:53:27.001Z,8.60
2019-03-27T14:55:55.434Z,8.60
2019-03-27T14:58:23.932Z,8.50
2019-03-27T15:00:52.461Z,8.50
2019-03-27T15:03:20.923Z,8.50
2019-03-27T15:05:49.475Z,8.50
2019-03-27T15:08:18.014Z,8.40
2019-03-27T15:10:46.437Z,8.40
2019-03-27T15:13:15.450Z,8.50
2019-03-27T15:15:44.045Z,8.60
2019-03-27T15:18:12.494Z,8.60
2019-03-27T15:20:40.928Z,8.40
2019-03-27T15:23:09.416Z,8.20
2019-03-27T15:25:37.839Z,8.10
2019-03-27T15:28:06.388Z,8.10
2019-03-27T15:30:35.159Z,8.00
2019-03-27T15:33:03.610Z,7.90
2019-03-27T15:35:32.107Z,7.90
2019-03-27T15:38:00.530Z,7.90
2019-03-27T15:40:32.039Z,7.80
2019-03-27T15:43:01.911Z,7.70
2019-03-27T15:45:30.348Z,7.70
2019-03-27T15:47:58.802Z,7.70
2019-03-27T15:50:27.287Z,7.70
2019-03-27T15:52:55.759Z,7.70
2019-03-27T15:55:24.185Z,7.70
2019-03-27T15:57:52.675Z,7.70
2019-03-27T16:00:21.377Z,7.70
2019-03-27T16:02:49.912Z,7.70
2019-03-27T16:05:18.370Z,7.80
2019-03-27T16:07:46.819Z,7.90
2019-03-27T16:10:18.254Z,8.00
2019-03-27T16:12:45.631Z,7.90
2019-03-27T16:15:14.841Z,7.90
2019-03-27T16:17:43.289Z,7.80
2019-03-27T16:20:11.786Z,7.80
2019-03-27T16:22:50.385Z,7.90
2019-03-27T16:25:11.971Z,7.80
2019-03-27T16:27:40.427Z,7.80
2019-03-27T16:30:09.159Z,7.80
2019-03-27T16:32:37.626Z,7.80
2019-03-27T16:35:07.618Z,7.80
2019-03-27T16:37:36.042Z,7.80
2019-03-27T16:40:06.962Z,7.70
2019-03-27T16:42:35.419Z,7.70
2019-03-27T16:45:06.020Z,7.70
2019-03-27T16:47:34.586Z,7.70
2019-03-27T16:50:04.423Z,7.70
2019-03-27T16:52:32.961Z,7.60
2019-03-27T16:55:01.386Z,7.60
2019-03-27T16:57:29.842Z,7.50
2019-03-27T16:59:58.308Z,7.50
2019-03-27T17:02:26.830Z,7.50
2019-03-27T17:04:55.283Z,7.40
2019-03-27T17:07:23.761Z,7.40
2019-03-27T17:09:52.185Z,7.30
2019-03-27T17:12:20.680Z,7.20
2019-03-27T17:14:49.140Z,7.20
2019-03-27T17:17:17.593Z,7.20
2019-03-27T17:19:46.023Z,7.10
2019-03-27T17:22:19.815Z,7.10
2019-03-27T17:24:44.670Z,7.00
2019-03-27T17:27:13.203Z,6.90
2019-03-27T17:29:41.675Z,6.80
2019-03-27T17:32:10.234Z,6.80
2019-03-27T17:34:38.698Z,6.70
2019-03-27T17:37:07.167Z,6.60
2019-03-27T17:39:35.706Z,6.50
2019-03-27T17:42:04.303Z,6.40
2019-03-27T17:44:32.765Z,6.30
2019-03-27T17:47:01.215Z,6.20
2019-03-27T17:49:29.646Z,6.10
2019-03-27T17:51:58.098Z,5.90
2019-03-27T17:54:26.559Z,5.70
2019-03-27T17:56:55.078Z,5.60
2019-03-27T17:59:23.537Z,5.40
2019-03-27T18:01:52.021Z,5.30
2019-03-27T18:04:20.474Z,5.10
2019-03-27T18:06:48.902Z,5.00
2019-03-27T18:09:17.395Z,5.00
2019-03-27T18:11:45.813Z,4.90
2019-03-27T18:14:14.567Z,4.80
2019-03-27T18:16:43.119Z,4.70
2019-03-27T18:19:11.591Z,4.60
2019-03-27T18:21:40.050Z,4.60
2019-03-27T18:24:08.545Z,4.60
2019-03-27T18:26:37.027Z,4.60
2019-03-27T18:29:05.452Z,4.70
2019-03-27T18:31:34.923Z,4.60
2019-03-27T18:34:03.501Z,4.60
2019-03-27T18:36:32.239Z,4.50
2019-03-27T18:39:00.829Z,4.40
2019-03-27T18:41:29.500Z,4.40
2019-03-27T18:43:57.992Z,4.50
2019-03-27T18:46:27.437Z,4.60
2019-03-27T18:48:56.007Z,4.70
2019-03-27T18:51:24.446Z,4.60
2019-03-27T18:53:59.411Z,4.50
2019-03-27T18:56:23.097Z,4.50
2019-03-27T18:58:51.595Z,4.60
2019-03-27T19:01:20.124Z,4.60
2019-03-27T19:03:48.690Z,4.60
2019-03-27T19:06:17.220Z,4.70
2019-03-27T19:08:45.654Z,4.70
2019-03-27T19:11:14.140Z,4.60
2019-03-27T19:13:42.622Z,4.60
2019-03-27T19:16:11.050Z,4.50
2019-03-27T19:18:39.511Z,4.40
2019-03-27T19:21:07.943Z,4.40
2019-03-27T19:23:36.449Z,4.40
2019-03-27T19:26:04.953Z,4.50
2019-03-27T19:28:33.532Z,4.60
2019-03-27T19:31:02.059Z,4.60
2019-03-27T19:33:30.573Z,4.70
2019-03-27T19:36:00.682Z,4.70
2019-03-27T19:38:29.188Z,4.70
2019-03-27T19:40:57.697Z,4.80
2019-03-27T19:43:26.170Z,4.80
2019-03-27T19:45:57.376Z,4.80
2019-03-27T19:48:24.891Z,4.90
2019-03-27T19:50:53.333Z,4.90
2019-03-27T19:53:21.843Z,4.90
2019-03-27T19:55:50.435Z,5.00
2019-03-27T19:58:18.913Z,5.00
2019-03-27T20:00:47.473Z,5.00
2019-03-27T20:03:16.078Z,5.00
2019-03-27T20:05:44.658Z,5.00
2019-03-27T20:08:13.117Z,5.00
2019-03-27T20:10:41.661Z,4.90
2019-03-27T20:13:10.237Z,4.90
2019-03-27T20:15:38.982Z,4.90
2019-03-27T20:18:07.621Z,4.80
2019-03-27T20:20:36.094Z,4.70
2019-03-27T20:23:14.686Z,4.70
2019-03-27T20:25:35.182Z,4.70
2019-03-27T20:28:03.895Z,4.80
2019-03-27T20:30:32.799Z,4.80
2019-03-27T20:33:01.352Z,4.90
2019-03-27T20:35:30.034Z,4.90
2019-03-27T20:37:58.502Z,4.90
2019-03-27T20:40:27.835Z,4.90
2019-03-27T20:42:56.501Z,4.90
2019-03-27T20:45:25.054Z,4.90
2019-03-27T20:47:53.601Z,4.80
2019-03-27T20:50:22.234Z,4.80
2019-03-27T20:52:50.868Z,4.80
2019-03-27T20:55:29.634Z,4.80
2019-03-27T20:57:49.742Z,4.80
2019-03-27T21:00:18.754Z,4.90
2019-03-27T21:02:47.530Z,4.90
2019-03-27T21:05:16.179Z,4.90
2019-03-27T21:07:44.877Z,4.90
2019-03-27T21:10:14.010Z,4.90
2019-03-27T21:12:42.561Z,4.90
2019-03-27T21:15:11.414Z,4.90
2019-03-27T21:17:40.020Z,4.90
2019-03-27T21:20:09.173Z,4.80
2019-03-27T21:22:37.734Z,4.80
2019-03-27T21:25:09.106Z,4.70
2019-03-27T21:27:37.600Z,4.60
2019-03-27T21:30:11.577Z,4.60
2019-03-27T21:32:40.202Z,4.40
2019-03-27T21:35:09.113Z,4.40
2019-03-27T21:37:37.595Z,4.30
2019-03-27T21:40:08.237Z,4.20
2019-03-27T21:42:36.936Z,4.20
2019-03-27T21:45:08.760Z,4.10
2019-03-27T21:47:37.411Z,4.10
2019-03-27T21:50:07.600Z,4.00
2019-03-27T21:52:36.173Z,4.00
2019-03-27T21:55:06.292Z,4.00
2019-03-27T21:57:34.752Z,4.00
2019-03-27T22:00:04.154Z,3.90
2019-03-27T22:02:32.695Z,3.90
2019-03-27T22:05:01.339Z,3.90
2019-03-27T22:07:29.774Z,4.00
2019-03-27T22:09:58.237Z,3.90
2019-03-27T22:12:26.702Z,3.90
2019-03-27T22:14:55.178Z,3.80
2019-03-27T22:17:23.656Z,3.70
2019-03-27T22:19:52.142Z,3.60
2019-03-27T22:22:20.631Z,3.60
2019-03-27T22:24:49.108Z,3.60
2019-03-27T22:27:17.599Z,3.70
2019-03-27T22:29:46.095Z,3.80
2019-03-27T22:32:14.599Z,3.80
2019-03-27T22:34:44.471Z,3.90
2019-03-27T22:37:13.036Z,3.90
2019-03-27T22:39:41.635Z,3.90
2019-03-27T22:42:10.174Z,3.90
2019-03-27T22:44:38.780Z,3.90
2019-03-27T22:47:07.282Z,3.90
2019-03-27T22:49:35.793Z,3.80
2019-03-27T22:52:04.354Z,3.90
2019-03-27T22:54:32.838Z,3.90
2019-03-27T22:57:01.372Z,3.90
2019-03-27T22:59:29.823Z,4.00
2019-03-27T23:01:58.336Z,4.00
2019-03-27T23:04:26.880Z,4.00
2019-03-27T23:06:55.313Z,4.00
2019-03-27T23:09:23.831Z,3.90
2019-03-27T23:11:52.312Z,3.90
2019-03-27T23:14:20.862Z,3.90
2019-03-27T23:16:49.339Z,3.90
2019-03-27T23:19:17.822Z,3.90
2019-03-27T23:21:46.359Z,3.90
2019-03-27T23:24:14.901Z,3.90
2019-03-27T23:26:43.354Z,3.90
2019-03-27T23:29:11.841Z,3.90
2019-03-27T23:31:40.508Z,3.80
2019-03-27T23:34:09.090Z,3.80
2019-03-27T23:36:37.615Z,3.70
2019-03-27T23:39:07.857Z,3.60
2019-03-27T23:41:36.372Z,3.60
2019-03-27T23:44:04.842Z,3.60
2019-03-27T23:46:33.321Z,3.60
2019-03-27T23:49:01.762Z,3.70
2019-03-27T23:51:30.230Z,3.60
2019-03-27T23:54:00.233Z,3.60
2019-03-27T23:56:28.754Z,3.60
2019-03-27T23:58:57.221Z,3.60
